createdAt,value
2017-05-07T00:00:10.190Z,1014.41
2017-05-07T00:01:32.401Z,1014.47
2017-05-07T00:02:54.870Z,1014.43
2017-05-07T00:04:17.089Z,1014.46
2017-05-07T00:05:39.919Z,1014.47
2017-05-07T00:07:02.388Z,1014.46
2017-05-07T00:08:24.221Z,1014.46
2017-05-07T00:09:46.818Z,1014.44
2017-05-07T00:11:09.122Z,1014.45
2017-05-07T00:12:31.620Z,1014.49
2017-05-07T00:13:53.856Z,1014.47
2017-05-07T00:15:15.390Z,1014.46
2017-05-07T00:16:37.311Z,1014.44
2017-05-07T00:17:59.771Z,1014.45
2017-05-07T00:19:21.939Z,1014.48
2017-05-07T00:20:44.190Z,1014.45
2017-05-07T00:22:06.661Z,1014.49
2017-05-07T00:23:28.486Z,1014.51
2017-05-07T00:24:50.297Z,1014.51
2017-05-07T00:26:11.876Z,1014.52
2017-05-07T00:27:34.100Z,1014.54
2017-05-07T00:28:56.067Z,1014.52
2017-05-07T00:30:17.879Z,1014.52
2017-05-07T00:31:39.710Z,1014.49
2017-05-07T00:33:02.774Z,1014.52
2017-05-07T00:34:24.949Z,1014.46
2017-05-07T00:35:47.540Z,1014.5
2017-05-07T00:37:09.842Z,1014.5
2017-05-07T00:38:32.550Z,1014.53
2017-05-07T00:39:55.142Z,1014.53
2017-05-07T00:41:16.659Z,1014.56
2017-05-07T00:42:38.561Z,1014.52
2017-05-07T00:44:00.439Z,1014.55
2017-05-07T00:45:22.039Z,1014.57
2017-05-07T00:46:43.547Z,1014.61
2017-05-07T00:48:05.819Z,1014.56
2017-05-07T00:49:27.369Z,1014.55
2017-05-07T00:50:49.205Z,1014.52
2017-05-07T00:52:11.048Z,1014.52
2017-05-07T00:53:32.560Z,1014.55
2017-05-07T00:54:55.480Z,1014.5
2017-05-07T00:56:17.614Z,1014.53
2017-05-07T00:57:39.781Z,1014.48
2017-05-07T00:59:01.611Z,1014.52
2017-05-07T01:00:24.022Z,1014.51
2017-05-07T01:01:46.491Z,1014.48
2017-05-07T01:03:08.994Z,1014.47
2017-05-07T01:04:30.552Z,1014.48
2017-05-07T01:05:53.070Z,1014.47
2017-05-07T01:07:15.363Z,1014.5
2017-05-07T01:08:36.923Z,1014.45
2017-05-07T01:09:58.541Z,1014.46
2017-05-07T01:11:20.690Z,1014.51
2017-05-07T01:12:42.242Z,1014.5
2017-05-07T01:14:04.741Z,1014.53
2017-05-07T01:15:26.660Z,1014.48
2017-05-07T01:16:48.771Z,1014.51
2017-05-07T01:18:10.640Z,1014.51
2017-05-07T01:19:32.471Z,1014.47
2017-05-07T01:20:54.420Z,1014.48
2017-05-07T01:22:16.649Z,1014.48
2017-05-07T01:23:39.121Z,1014.49
2017-05-07T01:25:01.401Z,1014.54
2017-05-07T01:26:23.560Z,1014.54
2017-05-07T01:27:45.738Z,1014.55
2017-05-07T01:29:08.199Z,1014.52
2017-05-07T01:30:29.720Z,1014.58
2017-05-07T01:31:51.220Z,1014.55
2017-05-07T01:33:13.711Z,1014.51
2017-05-07T01:34:35.895Z,1014.52
2017-05-07T01:35:57.427Z,1014.57
2017-05-07T01:37:19.571Z,1014.56
2017-05-07T01:38:41.701Z,1014.54
2017-05-07T01:40:03.277Z,1014.55
2017-05-07T01:41:25.758Z,1014.59
2017-05-07T01:42:47.319Z,1014.54
2017-05-07T01:44:09.501Z,1014.61
2017-05-07T01:45:31.059Z,1014.58
2017-05-07T01:46:53.630Z,1014.64
2017-05-07T01:48:15.460Z,1014.64
2017-05-07T01:49:37.301Z,1014.62
2017-05-07T01:50:58.812Z,1014.64
2017-05-07T01:52:21.260Z,1014.67
2017-05-07T01:53:43.088Z,1014.63
2017-05-07T01:55:05.583Z,1014.64
2017-05-07T01:56:27.724Z,1014.64
2017-05-07T01:57:49.261Z,1014.66
2017-05-07T01:59:11.127Z,1014.65
2017-05-07T02:00:32.931Z,1014.6
2017-05-07T02:01:55.124Z,1014.57
2017-05-07T02:03:17.443Z,1014.55
2017-05-07T02:04:39.588Z,1014.59
2017-05-07T02:06:02.030Z,1014.54
2017-05-07T02:07:23.631Z,1014.59
2017-05-07T02:08:45.132Z,1014.58
2017-05-07T02:10:06.677Z,1014.5
2017-05-07T02:11:29.490Z,1014.53
2017-05-07T02:12:51.660Z,1014.55
2017-05-07T02:14:13.478Z,1014.55
2017-05-07T02:15:35.939Z,1014.56
2017-05-07T02:16:58.123Z,1014.52
2017-05-07T02:18:20.276Z,1014.52
2017-05-07T02:19:42.472Z,1014.42
2017-05-07T02:21:04.624Z,1014.5
2017-05-07T02:22:26.719Z,1014.43
2017-05-07T02:23:48.448Z,1014.44
2017-05-07T02:25:10.745Z,1014.39
2017-05-07T02:26:32.239Z,1014.4
2017-05-07T02:27:54.427Z,1014.38
2017-05-07T02:29:16.959Z,1014.38
2017-05-07T02:30:38.465Z,1014.38
2017-05-07T02:32:00.396Z,1014.35
2017-05-07T02:33:22.149Z,1014.37
2017-05-07T02:34:44.686Z,1014.38
2017-05-07T02:36:05.869Z,1014.42
2017-05-07T02:37:27.395Z,1014.39
2017-05-07T02:38:48.839Z,1014.41
2017-05-07T02:40:10.977Z,1014.45
2017-05-07T02:41:32.867Z,1014.47
2017-05-07T02:42:54.710Z,1014.4
2017-05-07T02:44:17.046Z,1014.43
2017-05-07T02:45:38.889Z,1014.42
2017-05-07T02:47:01.095Z,1014.4
2017-05-07T02:48:22.595Z,1014.44
2017-05-07T02:49:44.819Z,1014.48
2017-05-07T02:51:06.959Z,1014.5
2017-05-07T02:52:28.785Z,1014.54
2017-05-07T02:53:50.616Z,1014.51
2017-05-07T02:55:12.448Z,1014.52
2017-05-07T02:56:33.959Z,1014.54
2017-05-07T02:57:56.142Z,1014.55
2017-05-07T02:59:18.707Z,1014.57
2017-05-07T03:00:40.951Z,1014.55
2017-05-07T03:02:03.405Z,1014.56
2017-05-07T03:03:25.868Z,1014.58
2017-05-07T03:04:47.701Z,1014.59
2017-05-07T03:06:09.485Z,1014.56
2017-05-07T03:07:31.653Z,1014.58
2017-05-07T03:08:53.916Z,1014.57
2017-05-07T03:10:15.758Z,1014.57
2017-05-07T03:11:37.866Z,1014.53
2017-05-07T03:13:00.069Z,1014.56
2017-05-07T03:14:21.896Z,1014.51
2017-05-07T03:15:43.410Z,1014.51
2017-05-07T03:17:05.869Z,1014.56
2017-05-07T03:18:27.384Z,1014.58
2017-05-07T03:19:49.216Z,1014.56
2017-05-07T03:21:11.046Z,1014.52
2017-05-07T03:22:33.508Z,1014.5
2017-05-07T03:23:55.439Z,1014.51
2017-05-07T03:25:17.578Z,1014.58
2017-05-07T03:26:38.776Z,1014.53
2017-05-07T03:28:01.528Z,1014.59
2017-05-07T03:29:23.360Z,1014.61
2017-05-07T03:30:45.200Z,1014.61
2017-05-07T03:32:07.028Z,1014.61
2017-05-07T03:33:28.959Z,1014.54
2017-05-07T03:34:50.809Z,1014.54
2017-05-07T03:36:11.990Z,1014.57
2017-05-07T03:37:33.939Z,1014.56
2017-05-07T03:38:55.749Z,1014.57
2017-05-07T03:40:17.297Z,1014.58
2017-05-07T03:41:39.441Z,1014.54
2017-05-07T03:43:01.262Z,1014.56
2017-05-07T03:44:23.406Z,1014.53
2017-05-07T03:45:44.636Z,1014.56
2017-05-07T03:47:05.957Z,1014.52
2017-05-07T03:48:27.506Z,1014.54
2017-05-07T03:49:49.698Z,1014.51
2017-05-07T03:51:11.530Z,1014.55
2017-05-07T03:52:33.088Z,1014.52
2017-05-07T03:53:55.558Z,1014.57
2017-05-07T03:55:17.374Z,1014.55
2017-05-07T03:56:39.547Z,1014.57
2017-05-07T03:58:01.690Z,1014.59
2017-05-07T03:59:23.287Z,1014.58
2017-05-07T04:00:45.729Z,1014.6
2017-05-07T04:02:07.234Z,1014.57
2017-05-07T04:03:28.660Z,1014.57
2017-05-07T04:04:51.137Z,1014.54
2017-05-07T04:06:13.870Z,1014.5
2017-05-07T04:07:36.323Z,1014.56
2017-05-07T04:08:57.929Z,1014.53
2017-05-07T04:10:20.449Z,1014.52
2017-05-07T04:11:42.687Z,1014.53
2017-05-07T04:13:04.847Z,1014.56
2017-05-07T04:14:26.048Z,1014.56
2017-05-07T04:15:48.186Z,1014.55
2017-05-07T04:17:09.958Z,1014.57
2017-05-07T04:18:31.838Z,1014.62
2017-05-07T04:19:53.701Z,1014.62
2017-05-07T04:21:16.168Z,1014.58
2017-05-07T04:22:38.678Z,1014.63
2017-05-07T04:24:00.854Z,1014.62
2017-05-07T04:25:22.687Z,1014.59
2017-05-07T04:26:44.835Z,1014.6
2017-05-07T04:28:06.758Z,1014.59
2017-05-07T04:29:28.268Z,1014.59
2017-05-07T04:30:50.477Z,1014.61
2017-05-07T04:32:11.997Z,1014.59
2017-05-07T04:33:33.897Z,1014.61
2017-05-07T04:34:55.102Z,1014.57
2017-05-07T04:36:16.940Z,1014.59
2017-05-07T04:37:38.849Z,1014.59
2017-05-07T04:39:01.076Z,1014.59
2017-05-07T04:40:22.909Z,1014.58
2017-05-07T04:41:45.157Z,1014.57
2017-05-07T04:43:06.999Z,1014.57
2017-05-07T04:44:29.761Z,1014.6
2017-05-07T04:45:51.593Z,1014.59
2017-05-07T04:47:14.136Z,1014.62
2017-05-07T04:48:35.678Z,1014.62
2017-05-07T04:49:57.874Z,1014.61
2017-05-07T04:51:19.719Z,1014.62
2017-05-07T04:52:41.963Z,1014.66
2017-05-07T04:54:04.238Z,1014.65
2017-05-07T04:55:26.740Z,1014.63
2017-05-07T04:56:48.611Z,1014.67
2017-05-07T04:58:10.750Z,1014.71
2017-05-07T04:59:32.268Z,1014.69
2017-05-07T05:00:54.078Z,1014.74
2017-05-07T05:02:15.597Z,1014.79
2017-05-07T05:03:37.428Z,1014.76
2017-05-07T05:04:58.968Z,1014.79
2017-05-07T05:06:21.742Z,1014.79
2017-05-07T05:07:43.564Z,1014.82
2017-05-07T05:09:05.226Z,1014.88
2017-05-07T05:10:27.087Z,1014.93
2017-05-07T05:11:49.342Z,1014.95
2017-05-07T05:13:10.855Z,1014.95
2017-05-07T05:14:33.307Z,1014.92
2017-05-07T05:15:55.919Z,1014.97
2017-05-07T05:17:17.433Z,1014.96
2017-05-07T05:18:38.648Z,1015.01
2017-05-07T05:20:00.780Z,1015
2017-05-07T05:21:22.740Z,1015.01
2017-05-07T05:22:45.449Z,1015.07
2017-05-07T05:24:07.593Z,1015.06
2017-05-07T05:25:29.732Z,1015.06
2017-05-07T05:26:51.591Z,1015.08
2017-05-07T05:28:14.049Z,1015.09
2017-05-07T05:29:35.572Z,1015.1
2017-05-07T05:30:57.468Z,1015.07
2017-05-07T05:32:19.296Z,1015.08
2017-05-07T05:33:41.749Z,1015.06
2017-05-07T05:35:03.928Z,1015.09
2017-05-07T05:36:25.438Z,1015.09
2017-05-07T05:37:47.898Z,1015.1
2017-05-07T05:39:10.407Z,1015.06
2017-05-07T05:40:32.560Z,1015.13
2017-05-07T05:41:54.389Z,1015.13
2017-05-07T05:43:16.216Z,1015.17
2017-05-07T05:44:38.360Z,1015.17
2017-05-07T05:45:59.878Z,1015.21
2017-05-07T05:47:22.339Z,1015.17
2017-05-07T05:48:44.184Z,1015.2
2017-05-07T05:50:05.991Z,1015.22
2017-05-07T05:51:28.119Z,1015.25
2017-05-07T05:52:49.949Z,1015.23
2017-05-07T05:54:12.479Z,1015.23
2017-05-07T05:55:34.958Z,1015.25
2017-05-07T05:56:56.796Z,1015.28
2017-05-07T05:58:18.621Z,1015.26
2017-05-07T05:59:40.449Z,1015.3
2017-05-07T06:01:02.220Z,1015.29
2017-05-07T06:02:24.418Z,1015.35
2017-05-07T06:03:46.570Z,1015.37
2017-05-07T06:05:08.719Z,1015.4
2017-05-07T06:06:31.189Z,1015.42
2017-05-07T06:07:53.342Z,1015.43
2017-05-07T06:09:14.616Z,1015.47
2017-05-07T06:10:37.078Z,1015.43
2017-05-07T06:11:58.633Z,1015.44
2017-05-07T06:13:20.147Z,1015.43
2017-05-07T06:14:41.975Z,1015.46
2017-05-07T06:16:04.135Z,1015.46
2017-05-07T06:17:26.449Z,1015.49
2017-05-07T06:18:48.623Z,1015.47
2017-05-07T06:20:10.469Z,1015.47
2017-05-07T06:21:32.301Z,1015.54
2017-05-07T06:22:54.120Z,1015.55
2017-05-07T06:24:16.279Z,1015.56
2017-05-07T06:25:38.124Z,1015.56
2017-05-07T06:27:00.302Z,1015.59
2017-05-07T06:28:22.189Z,1015.56
2017-05-07T06:29:43.710Z,1015.65
2017-05-07T06:31:05.238Z,1015.66
2017-05-07T06:32:26.760Z,1015.68
2017-05-07T06:33:49.369Z,1015.62
2017-05-07T06:35:10.887Z,1015.59
2017-05-07T06:36:33.065Z,1015.61
2017-05-07T06:37:55.280Z,1015.58
2017-05-07T06:39:17.463Z,1015.6
2017-05-07T06:40:39.640Z,1015.63
2017-05-07T06:42:02.176Z,1015.63
2017-05-07T06:43:24.693Z,1015.65
2017-05-07T06:44:47.217Z,1015.62
2017-05-07T06:46:09.372Z,1015.59
2017-05-07T06:47:31.323Z,1015.63
2017-05-07T06:48:53.545Z,1015.64
2017-05-07T06:50:16.071Z,1015.73
2017-05-07T06:51:38.521Z,1015.7
2017-05-07T06:53:00.441Z,1015.66
2017-05-07T06:54:22.609Z,1015.7
2017-05-07T06:55:44.806Z,1015.73
2017-05-07T06:57:06.459Z,1015.89
2017-05-07T06:58:28.375Z,1015.89
2017-05-07T06:59:50.853Z,1015.9
2017-05-07T07:01:13.270Z,1015.95
2017-05-07T07:02:35.673Z,1015.93
2017-05-07T07:03:57.540Z,1015.96
2017-05-07T07:05:19.398Z,1015.86
2017-05-07T07:06:41.699Z,1015.81
2017-05-07T07:08:03.915Z,1015.82
2017-05-07T07:09:26.200Z,1015.86
2017-05-07T07:10:48.393Z,1016.01
2017-05-07T07:12:09.899Z,1015.99
2017-05-07T07:13:32.387Z,1016.02
2017-05-07T07:14:55.039Z,1016.02
2017-05-07T07:16:17.227Z,1016.04
2017-05-07T07:17:39.748Z,1016.03
2017-05-07T07:19:01.909Z,1016.01
2017-05-07T07:20:23.747Z,1016.03
2017-05-07T07:21:45.266Z,1016
2017-05-07T07:23:07.730Z,1015.97
2017-05-07T07:24:29.900Z,1015.93
2017-05-07T07:25:52.580Z,1015.94
2017-05-07T07:27:15.189Z,1015.98
2017-05-07T07:28:37.915Z,1016
2017-05-07T07:29:59.457Z,1016.04
2017-05-07T07:31:21.320Z,1016.03
2017-05-07T07:32:43.800Z,1016.07
2017-05-07T07:34:06.288Z,1016.09
2017-05-07T07:35:28.449Z,1016.06
2017-05-07T07:36:50.613Z,1016.09
2017-05-07T07:38:12.769Z,1016.06
2017-05-07T07:39:34.922Z,1016.09
2017-05-07T07:40:56.777Z,1016.17
2017-05-07T07:42:18.301Z,1016.13
2017-05-07T07:43:40.506Z,1016.11
2017-05-07T07:45:02.667Z,1016.09
2017-05-07T07:46:24.829Z,1016.05
2017-05-07T07:47:47.314Z,1016.07
2017-05-07T07:49:09.176Z,1016.09
2017-05-07T07:50:31.730Z,1016.12
2017-05-07T07:51:53.302Z,1016.12
2017-05-07T07:53:15.492Z,1016.1
2017-05-07T07:54:37.327Z,1016.1
2017-05-07T07:55:59.579Z,1016.17
2017-05-07T07:57:21.935Z,1016.16
2017-05-07T07:58:44.419Z,1016.14
2017-05-07T08:00:06.900Z,1016.12
2017-05-07T08:01:29.111Z,1016.14
2017-05-07T08:02:51.607Z,1016.11
2017-05-07T08:04:13.780Z,1016.07
2017-05-07T08:05:36.283Z,1016.03
2017-05-07T08:06:58.839Z,1016.01
2017-05-07T08:08:20.696Z,1016
2017-05-07T08:09:42.875Z,1016.01
2017-05-07T08:11:37.032Z,1016.05
2017-05-07T08:12:59.660Z,1016.03
2017-05-07T08:14:21.827Z,1016.03
2017-05-07T08:15:43.691Z,1015.99
2017-05-07T08:17:06.539Z,1015.98
2017-05-07T08:18:28.715Z,1015.92
2017-05-07T08:19:50.651Z,1016.02
2017-05-07T08:21:12.805Z,1015.99
2017-05-07T08:22:35.310Z,1015.94
2017-05-07T08:23:57.891Z,1015.98
2017-05-07T08:25:20.279Z,1015.99
2017-05-07T08:26:42.180Z,1015.98
2017-05-07T08:28:04.334Z,1016.02
2017-05-07T08:29:26.509Z,1016.05
2017-05-07T08:30:48.304Z,1016.03
2017-05-07T08:32:10.517Z,1016.06
2017-05-07T08:33:33.050Z,1016
2017-05-07T08:34:54.944Z,1016.03
2017-05-07T08:36:16.914Z,1016.09
2017-05-07T08:37:39.179Z,1016.11
2017-05-07T08:39:01.348Z,1016.05
2017-05-07T08:40:22.560Z,1016.08
2017-05-07T08:41:44.738Z,1016.14
2017-05-07T08:43:06.900Z,1016.14
2017-05-07T08:44:29.365Z,1016.09
2017-05-07T08:45:51.389Z,1016.15
2017-05-07T08:47:12.949Z,1016.15
2017-05-07T08:48:34.829Z,1016.11
2017-05-07T08:49:57.329Z,1016.12
2017-05-07T08:51:19.511Z,1016.14
2017-05-07T08:52:41.602Z,1016.1
2017-05-07T08:54:03.349Z,1016.13
2017-05-07T08:55:25.819Z,1016.12
2017-05-07T08:56:47.439Z,1016.13
2017-05-07T08:58:09.288Z,1016.14
2017-05-07T08:59:31.498Z,1016.18
2017-05-07T09:00:54.296Z,1016.17
2017-05-07T09:02:16.778Z,1016.15
2017-05-07T09:03:38.942Z,1016.13
2017-05-07T09:05:01.393Z,1016.19
2017-05-07T09:06:23.529Z,1016.21
2017-05-07T09:07:46.099Z,1016.21
2017-05-07T09:09:08.296Z,1016.21
2017-05-07T09:10:30.908Z,1016.19
2017-05-07T09:11:52.884Z,1016.24
2017-05-07T09:13:15.094Z,1016.2
2017-05-07T09:14:37.002Z,1016.18
2017-05-07T09:15:59.174Z,1016.17
2017-05-07T09:17:22.109Z,1016.24
2017-05-07T09:18:44.282Z,1016.31
2017-05-07T09:20:06.753Z,1016.26
2017-05-07T09:21:28.274Z,1016.25
2017-05-07T09:22:51.165Z,1016.27
2017-05-07T09:24:13.107Z,1016.28
2017-05-07T09:25:34.965Z,1016.32
2017-05-07T09:26:56.719Z,1016.36
2017-05-07T09:28:17.927Z,1016.35
2017-05-07T09:29:39.774Z,1016.33
2017-05-07T09:31:01.322Z,1016.33
2017-05-07T09:32:23.557Z,1016.31
2017-05-07T09:33:45.109Z,1016.33
2017-05-07T09:35:07.703Z,1016.3
2017-05-07T09:36:29.628Z,1016.36
2017-05-07T09:37:51.868Z,1016.32
2017-05-07T09:39:14.264Z,1016.33
2017-05-07T09:40:36.919Z,1016.34
2017-05-07T09:41:58.804Z,1016.31
2017-05-07T09:43:21.040Z,1016.31
2017-05-07T09:44:43.289Z,1016.28
2017-05-07T09:46:05.457Z,1016.31
2017-05-07T09:47:27.358Z,1016.29
2017-05-07T09:48:49.228Z,1016.32
2017-05-07T09:50:11.659Z,1016.32
2017-05-07T09:51:34.205Z,1016.29
2017-05-07T09:52:56.056Z,1016.31
2017-05-07T09:54:17.268Z,1016.36
2017-05-07T09:55:39.409Z,1016.35
2017-05-07T09:57:01.316Z,1016.29
2017-05-07T09:58:23.623Z,1016.31
2017-05-07T09:59:45.172Z,1016.3
2017-05-07T10:01:07.410Z,1016.34
2017-05-07T10:02:29.559Z,1016.28
2017-05-07T10:03:52.108Z,1016.35
2017-05-07T10:05:13.789Z,1016.35
2017-05-07T10:06:35.928Z,1016.38
2017-05-07T10:07:57.799Z,1016.35
2017-05-07T10:09:19.983Z,1016.33
2017-05-07T10:10:41.817Z,1016.32
2017-05-07T10:12:03.663Z,1016.36
2017-05-07T10:13:25.505Z,1016.41
2017-05-07T10:14:47.418Z,1016.36
2017-05-07T10:16:09.258Z,1016.37
2017-05-07T10:17:32.065Z,1016.38
2017-05-07T10:18:54.351Z,1016.39
2017-05-07T10:20:15.923Z,1016.39
2017-05-07T10:21:38.156Z,1016.41
2017-05-07T10:23:00.381Z,1016.42
2017-05-07T10:24:22.917Z,1016.43
2017-05-07T10:25:44.887Z,1016.45
2017-05-07T10:27:07.057Z,1016.55
2017-05-07T10:28:29.216Z,1016.5
2017-05-07T10:29:51.741Z,1016.41
2017-05-07T10:31:13.918Z,1016.39
2017-05-07T10:32:36.232Z,1016.27
2017-05-07T10:33:59.196Z,1016.38
2017-05-07T10:35:21.457Z,1016.39
2017-05-07T10:36:43.962Z,1016.37
2017-05-07T10:38:06.150Z,1016.4
2017-05-07T10:39:28.384Z,1016.46
2017-05-07T10:40:50.217Z,1016.41
2017-05-07T10:42:12.369Z,1016.51
2017-05-07T10:43:34.879Z,1016.41
2017-05-07T10:44:57.666Z,1016.49
2017-05-07T10:46:19.858Z,1016.53
2017-05-07T10:47:42.481Z,1016.44
2017-05-07T10:49:04.477Z,1016.39
2017-05-07T10:50:27.285Z,1016.33
2017-05-07T10:51:49.786Z,1016.33
2017-05-07T10:53:12.168Z,1016.28
2017-05-07T10:54:34.398Z,1016.3
2017-05-07T10:55:56.624Z,1016.29
2017-05-07T10:57:18.487Z,1016.27
2017-05-07T10:58:40.337Z,1016.39
2017-05-07T11:00:02.837Z,1016.48
2017-05-07T11:01:25.357Z,1016.39
2017-05-07T11:02:47.846Z,1016.39
2017-05-07T11:04:10.027Z,1016.3
2017-05-07T11:05:32.554Z,1016.29
2017-05-07T11:06:54.708Z,1016.34
2017-05-07T11:08:17.327Z,1016.4
2017-05-07T11:09:39.497Z,1016.4
2017-05-07T11:11:01.327Z,1016.36
2017-05-07T11:12:24.153Z,1016.34
2017-05-07T11:13:46.353Z,1016.36
2017-05-07T11:15:08.890Z,1016.32
2017-05-07T11:16:31.092Z,1016.29
2017-05-07T11:17:53.889Z,1016.29
2017-05-07T11:19:16.183Z,1016.25
2017-05-07T11:20:38.377Z,1016.32
2017-05-07T11:22:00.530Z,1016.32
2017-05-07T11:23:23.463Z,1016.28
2017-05-07T11:24:45.320Z,1016.31
2017-05-07T11:26:07.499Z,1016.25
2017-05-07T11:27:29.406Z,1016.25
2017-05-07T11:28:51.555Z,1016.27
2017-05-07T11:30:12.836Z,1016.24
2017-05-07T11:31:34.996Z,1016.21
2017-05-07T11:32:56.841Z,1016.26
2017-05-07T11:34:19.083Z,1016.28
2017-05-07T11:35:41.338Z,1016.28
2017-05-07T11:37:02.547Z,1016.27
2017-05-07T11:38:25.047Z,1016.27
2017-05-07T11:39:47.565Z,1016.21
2017-05-07T11:41:09.839Z,1016.25
2017-05-07T11:42:31.384Z,1016.25
2017-05-07T11:43:53.225Z,1016.25
2017-05-07T11:45:15.116Z,1016.18
2017-05-07T11:46:37.006Z,1016.2
2017-05-07T11:47:58.846Z,1016.26
2017-05-07T11:49:20.879Z,1016.26
2017-05-07T11:50:43.745Z,1016.22
2017-05-07T11:52:05.282Z,1016.22
2017-05-07T11:53:27.438Z,1016.26
2017-05-07T11:54:49.470Z,1016.24
2017-05-07T11:56:11.694Z,1016.23
2017-05-07T11:57:33.907Z,1016.21
2017-05-07T11:58:55.776Z,1016.32
2017-05-07T12:00:17.601Z,1016.37
2017-05-07T12:01:40.177Z,1016.32
2017-05-07T12:03:02.670Z,1016.34
2017-05-07T12:04:24.523Z,1016.35
2017-05-07T12:05:47.017Z,1016.27
2017-05-07T12:07:09.525Z,1016.27
2017-05-07T12:08:31.688Z,1016.23
2017-05-07T12:09:53.879Z,1016.23
2017-05-07T12:11:16.063Z,1016.2
2017-05-07T12:12:38.518Z,1016.25
2017-05-07T12:14:00.687Z,1016.21
2017-05-07T12:15:22.544Z,1016.25
2017-05-07T12:16:45.035Z,1016.22
2017-05-07T12:18:07.520Z,1016.23
2017-05-07T12:19:29.350Z,1016.22
2017-05-07T12:20:51.538Z,1016.24
2017-05-07T12:22:14.070Z,1016.25
2017-05-07T12:23:36.539Z,1016.26
2017-05-07T12:24:58.797Z,1016.27
2017-05-07T12:26:21.059Z,1016.19
2017-05-07T12:27:43.317Z,1016.29
2017-05-07T12:29:05.854Z,1016.31
2017-05-07T12:30:28.014Z,1016.24
2017-05-07T12:31:50.506Z,1016.24
2017-05-07T12:33:12.025Z,1016.27
2017-05-07T12:34:34.628Z,1016.25
2017-05-07T12:35:57.041Z,1016.05
2017-05-07T12:37:19.229Z,1016.24
2017-05-07T12:38:41.409Z,1016.31
2017-05-07T12:40:03.866Z,1016.28
2017-05-07T12:41:26.044Z,1016.21
2017-05-07T12:42:48.259Z,1016.24
2017-05-07T12:44:10.779Z,1016.14
2017-05-07T12:45:33.558Z,1016.15
2017-05-07T12:46:55.497Z,1016.2
2017-05-07T12:48:17.425Z,1016.24
2017-05-07T12:49:39.588Z,1016.16
2017-05-07T12:51:01.427Z,1016.2
2017-05-07T12:52:23.299Z,1016.24
2017-05-07T12:53:45.467Z,1016.17
2017-05-07T12:55:07.307Z,1016.22
2017-05-07T12:56:29.797Z,1016.18
2017-05-07T12:57:51.658Z,1016.11
2017-05-07T12:59:13.898Z,1016.12
2017-05-07T13:00:36.084Z,1016.17
2017-05-07T13:01:58.277Z,1016.18
2017-05-07T13:03:20.446Z,1016.21
2017-05-07T13:04:42.915Z,1016.18
2017-05-07T13:06:05.459Z,1016.09
2017-05-07T13:07:28.026Z,1016.13
2017-05-07T13:08:50.284Z,1016.1
2017-05-07T13:10:12.467Z,1016.22
2017-05-07T13:11:34.627Z,1016.02
2017-05-07T13:12:57.154Z,1016.07
2017-05-07T13:14:19.631Z,1016.03
2017-05-07T13:15:42.281Z,1016.05
2017-05-07T13:17:04.168Z,1016.05
2017-05-07T13:18:26.647Z,1016.03
2017-05-07T13:19:48.822Z,1016.03
2017-05-07T13:21:11.154Z,1016.01
2017-05-07T13:22:33.329Z,1015.96
2017-05-07T13:23:55.754Z,1016
2017-05-07T13:25:17.918Z,1016.03
2017-05-07T13:26:40.137Z,1016.11
2017-05-07T13:28:02.335Z,1016.01
2017-05-07T13:29:24.495Z,1016.03
2017-05-07T13:30:46.732Z,1016.06
2017-05-07T13:32:08.587Z,1016.07
2017-05-07T13:33:31.107Z,1016.02
2017-05-07T13:34:53.576Z,1016.05
2017-05-07T13:36:15.519Z,1016.05
2017-05-07T13:37:37.997Z,1016.03
2017-05-07T13:39:00.511Z,1016.01
2017-05-07T13:40:22.978Z,1016.06
2017-05-07T13:41:44.869Z,1016.02
2017-05-07T13:43:07.126Z,1015.95
2017-05-07T13:44:28.986Z,1015.94
2017-05-07T13:45:51.918Z,1015.96
2017-05-07T13:47:13.774Z,1015.99
2017-05-07T13:48:35.936Z,1015.96
2017-05-07T13:49:57.769Z,1015.94
2017-05-07T13:51:20.289Z,1015.89
2017-05-07T13:52:42.833Z,1015.94
2017-05-07T13:54:04.989Z,1015.93
2017-05-07T13:55:27.708Z,1015.95
2017-05-07T13:56:49.864Z,1015.9
2017-05-07T13:58:11.819Z,1015.92
2017-05-07T13:59:34.137Z,1015.91
2017-05-07T14:00:56.636Z,1015.87
2017-05-07T14:02:18.838Z,1015.86
2017-05-07T14:03:40.362Z,1015.86
2017-05-07T14:05:02.981Z,1015.84
2017-05-07T14:06:24.901Z,1015.85
2017-05-07T14:07:47.678Z,1015.82
2017-05-07T14:09:09.837Z,1015.81
2017-05-07T14:10:31.427Z,1015.76
2017-05-07T14:11:52.626Z,1015.85
2017-05-07T14:13:15.390Z,1015.82
2017-05-07T14:14:37.237Z,1015.85
2017-05-07T14:15:59.166Z,1015.85
2017-05-07T14:17:21.701Z,1015.83
2017-05-07T14:18:43.215Z,1015.87
2017-05-07T14:20:05.195Z,1015.87
2017-05-07T14:21:27.678Z,1015.85
2017-05-07T14:22:49.919Z,1015.88
2017-05-07T14:24:12.069Z,1015.86
2017-05-07T14:25:33.933Z,1015.9
2017-05-07T14:26:56.116Z,1015.85
2017-05-07T14:28:18.326Z,1015.86
2017-05-07T14:29:41.204Z,1015.87
2017-05-07T14:31:03.715Z,1015.84
2017-05-07T14:32:25.880Z,1015.88
2017-05-07T14:33:47.409Z,1015.87
2017-05-07T14:35:09.230Z,1015.85
2017-05-07T14:36:31.077Z,1015.81
2017-05-07T14:37:53.862Z,1015.91
2017-05-07T14:39:15.794Z,1015.83
2017-05-07T14:40:38.537Z,1015.92
2017-05-07T14:42:00.855Z,1015.85
2017-05-07T14:43:23.010Z,1015.87
2017-05-07T14:44:45.198Z,1015.88
2017-05-07T14:46:07.508Z,1015.87
2017-05-07T14:47:30.004Z,1015.85
2017-05-07T14:48:52.227Z,1015.9
2017-05-07T14:50:14.728Z,1015.85
2017-05-07T14:51:36.509Z,1015.88
2017-05-07T14:52:58.686Z,1015.88
2017-05-07T14:54:20.867Z,1015.92
2017-05-07T14:55:43.055Z,1015.91
2017-05-07T14:57:05.237Z,1015.91
2017-05-07T14:58:26.766Z,1015.9
2017-05-07T14:59:48.623Z,1015.91
2017-05-07T15:01:10.784Z,1015.94
2017-05-07T15:02:33.647Z,1015.87
2017-05-07T15:03:55.854Z,1015.88
2017-05-07T15:05:18.349Z,1015.94
2017-05-07T15:06:40.850Z,1015.89
2017-05-07T15:08:03.358Z,1015.95
2017-05-07T15:09:25.864Z,1015.99
2017-05-07T15:10:47.812Z,1015.93
2017-05-07T15:12:10.001Z,1015.87
2017-05-07T15:13:32.307Z,1015.96
2017-05-07T15:14:54.854Z,1015.93
2017-05-07T15:16:17.182Z,1015.91
2017-05-07T15:17:39.676Z,1015.88
2017-05-07T15:19:01.809Z,1015.91
2017-05-07T15:20:23.658Z,1015.99
2017-05-07T15:21:45.505Z,1015.9
2017-05-07T15:23:07.677Z,1015.93
2017-05-07T15:24:30.087Z,1015.91
2017-05-07T15:25:52.282Z,1015.88
2017-05-07T15:27:14.129Z,1015.85
2017-05-07T15:28:36.732Z,1015.91
2017-05-07T15:29:59.763Z,1015.86
2017-05-07T15:31:21.615Z,1015.79
2017-05-07T15:32:43.488Z,1015.85
2017-05-07T15:34:06.124Z,1015.85
2017-05-07T15:35:28.577Z,1015.82
2017-05-07T15:36:50.766Z,1015.79
2017-05-07T15:38:12.641Z,1015.77
2017-05-07T15:39:35.135Z,1015.78
2017-05-07T15:40:57.995Z,1015.77
2017-05-07T15:42:20.156Z,1015.84
2017-05-07T15:43:42.041Z,1015.79
2017-05-07T15:45:03.991Z,1015.8
2017-05-07T15:46:26.248Z,1015.74
2017-05-07T15:47:48.889Z,1015.82
2017-05-07T15:49:11.078Z,1015.8
2017-05-07T15:50:32.947Z,1015.77
2017-05-07T15:51:55.512Z,1015.78
2017-05-07T15:53:17.365Z,1015.82
2017-05-07T15:54:39.897Z,1015.79
2017-05-07T15:56:02.381Z,1015.8
2017-05-07T15:57:25.206Z,1015.73
2017-05-07T15:58:47.711Z,1015.76
2017-05-07T16:00:09.630Z,1015.7
2017-05-07T16:01:31.926Z,1015.67
2017-05-07T16:02:54.212Z,1015.71
2017-05-07T16:04:16.167Z,1015.72
2017-05-07T16:05:38.046Z,1015.69
2017-05-07T16:07:00.340Z,1015.74
2017-05-07T16:08:22.353Z,1015.72
2017-05-07T16:09:43.898Z,1015.79
2017-05-07T16:11:06.055Z,1015.8
2017-05-07T16:12:28.546Z,1015.72
2017-05-07T16:13:51.072Z,1015.74
2017-05-07T16:15:12.999Z,1015.76
2017-05-07T16:16:35.172Z,1015.73
2017-05-07T16:17:57.467Z,1015.73
2017-05-07T16:19:19.328Z,1015.72
2017-05-07T16:20:41.811Z,1015.74
2017-05-07T16:22:03.778Z,1015.75
2017-05-07T16:23:26.083Z,1015.77
2017-05-07T16:24:48.590Z,1015.78
2017-05-07T16:26:10.767Z,1015.7
2017-05-07T16:27:32.640Z,1015.74
2017-05-07T16:28:55.130Z,1015.79
2017-05-07T16:30:18.038Z,1015.81
2017-05-07T16:31:40.368Z,1015.77
2017-05-07T16:33:03.061Z,1015.75
2017-05-07T16:34:24.917Z,1015.77
2017-05-07T16:35:47.536Z,1015.8
2017-05-07T16:37:09.401Z,1015.74